createdAt,value
2018-12-21T00:00:48.733Z,8.56
2018-12-21T00:01:49.338Z,8.56
2018-12-21T00:02:49.925Z,8.60
2018-12-21T00:03:50.515Z,8.58
2018-12-21T00:04:51.111Z,8.67
2018-12-21T00:05:51.707Z,8.55
2018-12-21T00:06:52.305Z,8.56
2018-12-21T00:07:52.900Z,8.59
2018-12-21T00:08:53.497Z,8.59
2018-12-21T00:09:54.085Z,8.53
2018-12-21T00:10:54.682Z,8.59
2018-12-21T00:11:55.270Z,8.56
2018-12-21T00:12:55.861Z,8.55
2018-12-21T00:13:56.450Z,8.56
2018-12-21T00:14:57.039Z,8.58
2018-12-21T00:15:57.631Z,8.68
2018-12-21T00:16:58.226Z,8.55
2018-12-21T00:17:58.826Z,8.60
2018-12-21T00:18:59.427Z,8.63
2018-12-21T00:20:00.023Z,8.67
2018-12-21T00:22:16.097Z,8.55
2018-12-21T00:23:16.692Z,8.66
2018-12-21T00:24:17.289Z,8.67
2018-12-21T00:25:17.881Z,8.67
2018-12-21T00:26:18.478Z,8.68
2018-12-21T00:27:19.075Z,8.71
2018-12-21T00:28:19.673Z,8.74
2018-12-21T00:29:20.270Z,8.68
2018-12-21T00:30:20.865Z,8.71
2018-12-21T00:31:21.463Z,8.73
2018-12-21T00:32:22.058Z,8.67
2018-12-21T00:33:22.671Z,8.76
2018-12-21T00:34:23.256Z,8.77
2018-12-21T00:35:23.851Z,8.77
2018-12-21T00:36:24.449Z,8.78
2018-12-21T00:37:25.047Z,8.78
2018-12-21T00:38:25.647Z,8.78
2018-12-21T00:39:26.232Z,8.74
2018-12-21T00:40:26.821Z,8.74
2018-12-21T00:41:27.419Z,8.74
2018-12-21T00:42:28.008Z,8.73
2018-12-21T00:43:28.607Z,8.67
2018-12-21T00:44:29.203Z,8.71
2018-12-21T00:45:29.799Z,8.81
2018-12-21T00:46:30.391Z,8.73
2018-12-21T00:47:30.987Z,8.76
2018-12-21T00:48:31.583Z,8.74
2018-12-21T00:49:32.180Z,8.68
2018-12-21T00:50:32.775Z,8.70
2018-12-21T00:51:33.378Z,8.66
2018-12-21T00:52:33.968Z,8.68
2018-12-21T00:53:34.564Z,8.74
2018-12-21T00:54:35.159Z,8.77
2018-12-21T00:55:35.747Z,8.77
2018-12-21T00:56:36.353Z,8.73
2018-12-21T00:57:36.950Z,8.70
2018-12-21T00:58:37.550Z,8.76
2018-12-21T00:59:38.167Z,8.74
2018-12-21T01:00:38.770Z,8.76
2018-12-21T01:01:39.372Z,8.76
2018-12-21T01:02:39.957Z,8.67
2018-12-21T01:03:40.555Z,8.68
2018-12-21T01:04:41.142Z,8.66
2018-12-21T01:05:41.731Z,8.66
2018-12-21T01:06:42.329Z,8.68
2018-12-21T01:07:42.916Z,8.66
2018-12-21T01:08:43.515Z,8.64
2018-12-21T01:09:44.111Z,8.67
2018-12-21T01:10:44.711Z,8.73
2018-12-21T01:11:45.296Z,8.70
2018-12-21T01:12:45.893Z,8.77
2018-12-21T01:13:46.495Z,8.68
2018-12-21T01:14:47.090Z,8.68
2018-12-21T01:15:47.687Z,8.71
2018-12-21T01:16:48.276Z,8.66
2018-12-21T01:17:48.875Z,8.67
2018-12-21T01:18:49.472Z,8.63
2018-12-21T01:19:50.067Z,8.60
2018-12-21T01:20:50.666Z,8.66
2018-12-21T01:21:51.264Z,8.67
2018-12-21T01:22:51.853Z,8.60
2018-12-21T01:23:52.449Z,8.56
2018-12-21T01:24:53.041Z,8.59
2018-12-21T01:25:53.631Z,8.63
2018-12-21T01:26:54.228Z,8.63
2018-12-21T01:27:54.827Z,8.56
2018-12-21T01:28:55.424Z,8.59
2018-12-21T01:29:56.021Z,8.64
2018-12-21T01:30:56.623Z,8.60
2018-12-21T01:31:57.215Z,8.63
2018-12-21T01:32:57.810Z,8.60
2018-12-21T01:33:58.408Z,8.55
2018-12-21T01:34:59.003Z,8.55
2018-12-21T01:35:59.591Z,8.60
2018-12-21T01:37:00.191Z,8.58
2018-12-21T01:38:00.785Z,8.55
2018-12-21T01:39:01.383Z,8.60
2018-12-21T01:40:01.982Z,8.64
2018-12-21T01:41:02.571Z,8.71
2018-12-21T01:42:03.161Z,8.68
2018-12-21T01:43:03.758Z,8.68
2018-12-21T01:44:04.347Z,8.66
2018-12-21T01:45:04.950Z,8.76
2018-12-21T01:46:05.563Z,8.68
2018-12-21T01:47:06.147Z,8.66
2018-12-21T01:48:06.737Z,8.63
2018-12-21T01:49:07.335Z,8.63
2018-12-21T01:50:07.929Z,8.64
2018-12-21T01:51:08.527Z,8.64
2018-12-21T01:52:09.126Z,8.60
2018-12-21T01:53:09.719Z,8.59
2018-12-21T01:54:10.319Z,8.63
2018-12-21T01:55:10.908Z,8.63
2018-12-21T01:56:11.504Z,8.58
2018-12-21T01:57:12.102Z,8.67
2018-12-21T01:58:12.698Z,8.55
2018-12-21T01:59:13.293Z,8.53
2018-12-21T02:00:13.882Z,8.53
2018-12-21T02:01:14.481Z,8.52
2018-12-21T02:02:15.085Z,8.45
2018-12-21T02:03:15.661Z,8.50
2018-12-21T02:04:16.260Z,8.56
2018-12-21T02:05:16.854Z,8.49
2018-12-21T02:06:17.443Z,8.45
2018-12-21T02:07:18.029Z,8.58
2018-12-21T02:08:18.627Z,8.43
2018-12-21T02:09:19.215Z,8.56
2018-12-21T02:10:19.811Z,8.59
2018-12-21T02:11:20.415Z,8.56
2018-12-21T02:12:21.006Z,8.52
2018-12-21T02:13:21.592Z,8.59
2018-12-21T02:14:22.180Z,8.46
2018-12-21T02:15:22.773Z,8.46
2018-12-21T02:16:23.364Z,8.56
2018-12-21T02:17:23.954Z,8.59
2018-12-21T02:18:24.543Z,8.58
2018-12-21T02:19:25.142Z,8.56
2018-12-21T02:20:25.748Z,8.68
2018-12-21T02:21:26.333Z,8.70
2018-12-21T02:22:26.928Z,8.67
2018-12-21T02:23:27.530Z,8.73
2018-12-21T02:24:28.121Z,8.71
2018-12-21T02:25:28.715Z,8.73
2018-12-21T02:26:29.301Z,8.78
2018-12-21T02:27:29.890Z,8.82
2018-12-21T02:28:30.487Z,8.76
2018-12-21T02:29:31.088Z,8.81
2018-12-21T02:30:31.681Z,8.89
2018-12-21T02:31:32.271Z,8.93
2018-12-21T02:32:32.865Z,8.95
2018-12-21T02:33:33.454Z,9.00
2018-12-21T02:34:34.049Z,8.95
2018-12-21T02:35:34.635Z,9.03
2018-12-21T02:36:35.235Z,8.92
2018-12-21T02:37:35.971Z,8.96
2018-12-21T02:38:36.421Z,8.89
2018-12-21T02:39:37.022Z,8.95
2018-12-21T02:40:37.617Z,8.93
2018-12-21T02:41:38.224Z,8.92
2018-12-21T02:42:38.808Z,8.92
2018-12-21T02:43:39.405Z,8.96
2018-12-21T02:44:40.001Z,9.04
2018-12-21T02:45:40.598Z,9.00
2018-12-21T02:46:41.184Z,8.92
2018-12-21T02:47:41.781Z,9.00
2018-12-21T02:48:42.386Z,9.03
2018-12-21T02:49:42.964Z,9.11
2018-12-21T02:50:43.563Z,9.08
2018-12-21T02:51:44.160Z,9.06
2018-12-21T02:52:44.754Z,9.01
2018-12-21T02:53:45.349Z,9.03
2018-12-21T02:54:45.944Z,9.06
2018-12-21T02:55:46.541Z,9.01
2018-12-21T02:56:47.131Z,9.10
2018-12-21T02:57:47.719Z,9.04
2018-12-21T02:58:48.326Z,9.06
2018-12-21T02:59:48.918Z,9.06
2018-12-21T03:00:49.498Z,9.17
2018-12-21T03:01:50.095Z,9.01
2018-12-21T03:02:50.691Z,9.04
2018-12-21T03:03:51.298Z,9.01
2018-12-21T03:04:51.883Z,9.03
2018-12-21T03:05:52.481Z,9.04
2018-12-21T03:06:53.086Z,9.08
2018-12-21T03:07:53.674Z,9.04
2018-12-21T03:08:54.278Z,9.06
2018-12-21T03:09:54.867Z,9.12
2018-12-21T03:10:55.460Z,9.19
2018-12-21T03:11:56.057Z,9.26
2018-12-21T03:12:56.657Z,9.19
2018-12-21T03:13:57.241Z,9.12
2018-12-21T03:14:57.838Z,9.08
2018-12-21T03:15:58.498Z,9.11
2018-12-21T03:16:59.015Z,9.11
2018-12-21T03:17:59.604Z,9.14
2018-12-21T03:19:00.201Z,9.10
2018-12-21T03:20:00.798Z,9.12
2018-12-21T03:21:01.393Z,9.10
2018-12-21T03:22:01.989Z,9.10
2018-12-21T03:23:02.577Z,9.12
2018-12-21T03:24:03.173Z,9.10
2018-12-21T03:25:03.773Z,9.20
2018-12-21T03:26:04.364Z,9.20
2018-12-21T03:27:04.962Z,9.22
2018-12-21T03:28:05.551Z,9.23
2018-12-21T03:29:06.248Z,9.20
2018-12-21T03:30:06.769Z,9.22
2018-12-21T03:31:07.360Z,9.20
2018-12-21T03:32:07.955Z,9.20
2018-12-21T03:33:08.540Z,9.19
2018-12-21T03:34:09.130Z,9.22
2018-12-21T03:35:09.727Z,9.23
2018-12-21T03:36:10.315Z,9.26
2018-12-21T03:37:10.910Z,9.25
2018-12-21T03:38:11.508Z,9.25
2018-12-21T03:39:12.102Z,9.23
2018-12-21T03:40:12.698Z,9.26
2018-12-21T03:41:13.296Z,9.28
2018-12-21T03:42:13.890Z,9.28
2018-12-21T03:43:14.478Z,9.30
2018-12-21T03:44:15.069Z,9.33
2018-12-21T03:45:15.658Z,9.30
2018-12-21T03:46:16.255Z,9.28
2018-12-21T03:47:16.852Z,9.25
2018-12-21T03:48:17.450Z,9.35
2018-12-21T03:49:18.048Z,9.38
2018-12-21T03:50:18.642Z,9.45
2018-12-21T03:51:19.237Z,9.33
2018-12-21T03:52:24.169Z,9.43
2018-12-21T03:53:20.420Z,9.33
2018-12-21T03:54:21.017Z,9.41
2018-12-21T03:55:21.603Z,9.36
2018-12-21T03:56:22.201Z,9.44
2018-12-21T03:57:22.799Z,9.41
2018-12-21T03:58:23.387Z,9.50
2018-12-21T03:59:23.983Z,9.50
2018-12-21T04:00:24.577Z,9.54
2018-12-21T04:01:25.173Z,9.56
2018-12-21T04:02:25.767Z,9.61
2018-12-21T04:03:26.365Z,9.61
2018-12-21T04:04:26.963Z,9.62
2018-12-21T04:05:27.549Z,9.63
2018-12-21T04:06:28.145Z,9.59
2018-12-21T04:07:28.742Z,9.63
2018-12-21T04:08:29.338Z,9.63
2018-12-21T04:09:29.937Z,9.63
2018-12-21T04:10:30.530Z,9.58
2018-12-21T04:11:31.126Z,9.54
2018-12-21T04:12:31.712Z,9.65
2018-12-21T04:13:32.307Z,9.59
2018-12-21T04:14:32.898Z,9.59
2018-12-21T04:15:33.490Z,9.48
2018-12-21T04:16:34.082Z,9.53
2018-12-21T04:17:34.676Z,9.48
2018-12-21T04:18:35.271Z,9.53
2018-12-21T04:19:35.862Z,9.36
2018-12-21T04:20:36.457Z,9.35
2018-12-21T04:21:37.053Z,9.33
2018-12-21T04:22:37.647Z,9.29
2018-12-21T04:23:38.236Z,9.25
2018-12-21T04:24:38.820Z,9.14
2018-12-21T04:25:39.417Z,9.10
2018-12-21T04:26:40.010Z,8.92
2018-12-21T04:27:40.601Z,8.89
2018-12-21T04:28:41.199Z,8.95
2018-12-21T04:29:41.792Z,8.96
2018-12-21T04:30:42.390Z,8.98
2018-12-21T04:31:42.984Z,8.98
2018-12-21T04:32:43.580Z,8.93
2018-12-21T04:33:44.179Z,8.88
2018-12-21T04:34:44.764Z,8.95
2018-12-21T04:35:45.360Z,8.82
2018-12-21T04:36:45.952Z,8.85
2018-12-21T04:37:46.540Z,8.84
2018-12-21T04:38:47.130Z,8.85
2018-12-21T04:39:47.726Z,8.81
2018-12-21T04:40:48.321Z,8.84
2018-12-21T04:41:48.909Z,8.76
2018-12-21T04:42:49.504Z,8.85
2018-12-21T04:43:50.097Z,8.74
2018-12-21T04:44:50.685Z,8.73
2018-12-21T04:45:51.280Z,8.66
2018-12-21T04:46:51.874Z,8.67
2018-12-21T04:47:52.469Z,8.67
2018-12-21T04:48:53.067Z,8.67
2018-12-21T04:49:53.660Z,8.59
2018-12-21T04:50:54.256Z,8.63
2018-12-21T04:51:54.844Z,8.64
2018-12-21T04:52:55.436Z,8.60
2018-12-21T04:53:57.425Z,8.56
2018-12-21T04:54:57.614Z,8.58
2018-12-21T04:55:58.210Z,8.58
2018-12-21T04:56:58.800Z,8.56
2018-12-21T04:57:59.387Z,8.52
2018-12-21T04:58:59.985Z,8.55
2018-12-21T05:00:00.575Z,8.56
2018-12-21T05:01:01.165Z,8.60
2018-12-21T05:02:01.758Z,8.58
2018-12-21T05:03:02.348Z,8.59
2018-12-21T05:04:02.946Z,8.66
2018-12-21T05:05:03.529Z,8.52
2018-12-21T05:06:04.118Z,8.56
2018-12-21T05:07:12.097Z,8.63
2018-12-21T05:08:05.305Z,8.58
2018-12-21T05:09:05.897Z,8.56
2018-12-21T05:10:06.482Z,8.58
2018-12-21T05:11:07.072Z,8.67
2018-12-21T05:12:07.657Z,8.66
2018-12-21T05:13:08.253Z,8.70
2018-12-21T05:14:08.848Z,8.67
2018-12-21T05:15:09.444Z,8.67
2018-12-21T05:16:10.039Z,8.64
2018-12-21T05:17:10.626Z,8.68
2018-12-21T05:18:11.212Z,8.68
2018-12-21T05:19:11.811Z,8.63
2018-12-21T05:20:12.404Z,8.63
2018-12-21T05:21:12.992Z,8.59
2018-12-21T05:22:13.589Z,8.70
2018-12-21T05:23:14.183Z,8.59
2018-12-21T05:24:14.776Z,8.66
2018-12-21T05:25:15.366Z,8.67
2018-12-21T05:26:15.951Z,8.68
2018-12-21T05:27:16.537Z,8.66
2018-12-21T05:28:17.138Z,8.64
2018-12-21T05:29:17.734Z,8.70
2018-12-21T05:30:18.328Z,8.78
2018-12-21T05:31:28.071Z,8.81
2018-12-21T05:32:19.499Z,8.78
2018-12-21T05:33:20.099Z,8.70
2018-12-21T05:34:20.688Z,8.78
2018-12-21T05:35:21.275Z,8.77
2018-12-21T05:36:21.872Z,8.74
2018-12-21T05:37:22.485Z,8.77
2018-12-21T05:38:23.078Z,8.85
2018-12-21T05:39:23.666Z,8.85
2018-12-21T05:40:24.262Z,8.78
2018-12-21T05:41:24.864Z,8.82
2018-12-21T05:42:25.465Z,8.74
2018-12-21T05:43:26.046Z,8.86
2018-12-21T05:44:26.645Z,8.81
2018-12-21T05:45:27.240Z,8.78
2018-12-21T05:46:27.833Z,8.89
2018-12-21T05:47:28.424Z,8.82
2018-12-21T05:48:29.016Z,8.89
2018-12-21T05:49:29.603Z,8.76
2018-12-21T05:50:30.203Z,8.88
2018-12-21T05:51:30.794Z,8.84
2018-12-21T05:52:31.390Z,8.92
2018-12-21T05:53:31.987Z,8.86
2018-12-21T05:54:32.575Z,8.89
2018-12-21T05:55:33.163Z,8.95
2018-12-21T05:56:33.748Z,9.00
2018-12-21T05:57:34.342Z,8.96
2018-12-21T05:58:34.936Z,9.01
2018-12-21T05:59:35.522Z,8.96
2018-12-21T06:00:36.118Z,9.01
2018-12-21T06:01:36.715Z,9.03
2018-12-21T06:02:37.307Z,8.98
2018-12-21T06:03:37.902Z,9.10
2018-12-21T06:04:38.490Z,8.92
2018-12-21T06:05:39.088Z,8.98
2018-12-21T06:06:39.686Z,8.91
2018-12-21T06:07:40.276Z,9.01
2018-12-21T06:08:40.871Z,9.04
2018-12-21T06:09:41.468Z,9.04
2018-12-21T06:10:42.063Z,9.17
2018-12-21T06:11:42.659Z,9.14
2018-12-21T06:12:43.247Z,9.06
2018-12-21T06:13:43.848Z,9.10
2018-12-21T06:14:44.428Z,9.03
2018-12-21T06:15:45.015Z,9.04
2018-12-21T06:16:45.615Z,9.03
2018-12-21T06:17:46.206Z,9.10
2018-12-21T06:18:46.792Z,9.15
2018-12-21T06:19:47.390Z,9.14
2018-12-21T06:20:48.074Z,9.11
2018-12-21T06:21:48.590Z,9.08
2018-12-21T06:22:49.180Z,9.01
2018-12-21T06:23:49.770Z,9.12
2018-12-21T06:24:50.358Z,9.11
2018-12-21T06:25:50.946Z,9.12
2018-12-21T06:26:51.533Z,9.06
2018-12-21T06:27:52.130Z,9.06
2018-12-21T06:28:52.726Z,9.10
2018-12-21T06:29:53.320Z,9.06
2018-12-21T06:30:53.916Z,9.04
2018-12-21T06:31:54.514Z,9.20
2018-12-21T06:32:55.110Z,9.11
2018-12-21T06:33:55.693Z,9.06
2018-12-21T06:34:56.291Z,9.01
2018-12-21T06:35:56.887Z,9.06
2018-12-21T06:36:57.482Z,9.04
2018-12-21T06:37:58.082Z,9.08
2018-12-21T06:38:58.673Z,9.11
2018-12-21T06:39:59.269Z,9.03
2018-12-21T06:40:59.865Z,9.04
2018-12-21T06:42:00.453Z,9.01
2018-12-21T06:43:01.040Z,9.10
2018-12-21T06:44:01.636Z,8.98
2018-12-21T06:45:02.220Z,9.14
2018-12-21T06:46:02.815Z,9.19
2018-12-21T06:47:03.403Z,9.15
2018-12-21T06:48:03.990Z,9.22
2018-12-21T06:49:04.586Z,9.12
2018-12-21T06:50:05.182Z,9.20
2018-12-21T06:51:05.770Z,9.23
2018-12-21T06:52:06.365Z,9.20
2018-12-21T06:53:06.956Z,9.26
2018-12-21T06:54:07.551Z,9.28
2018-12-21T06:55:08.145Z,9.25
2018-12-21T06:56:08.740Z,9.25
2018-12-21T06:57:09.338Z,9.23
2018-12-21T06:58:09.934Z,9.25
2018-12-21T06:59:10.538Z,9.28
2018-12-21T07:00:11.129Z,9.35
2018-12-21T07:01:11.717Z,9.29
2018-12-21T07:02:12.311Z,9.28
2018-12-21T07:03:17.081Z,9.29
2018-12-21T07:04:13.491Z,9.28
2018-12-21T07:05:14.092Z,9.32
2018-12-21T07:06:14.684Z,9.28
2018-12-21T07:07:15.278Z,9.30
2018-12-21T07:08:15.878Z,9.30
2018-12-21T07:09:16.471Z,9.28
2018-12-21T07:10:17.065Z,9.29
2018-12-21T07:11:17.700Z,9.26
2018-12-21T07:12:18.262Z,9.32
2018-12-21T07:13:18.865Z,9.29
2018-12-21T07:14:19.440Z,9.29
2018-12-21T07:15:20.034Z,9.35
2018-12-21T07:16:20.631Z,9.36
2018-12-21T07:17:21.283Z,9.33
2018-12-21T07:18:21.881Z,9.32
2018-12-21T07:19:22.471Z,9.30
2018-12-21T07:20:23.056Z,9.30
2018-12-21T07:21:23.656Z,9.33
2018-12-21T07:22:24.257Z,9.41
2018-12-21T07:23:27.222Z,9.36
2018-12-21T07:24:25.447Z,9.36
2018-12-21T07:25:26.044Z,9.45
2018-12-21T07:26:26.643Z,9.29
2018-12-21T07:27:27.234Z,9.45
2018-12-21T07:28:27.835Z,9.44
2018-12-21T07:29:28.433Z,9.33
2018-12-21T07:30:29.027Z,9.43
2018-12-21T07:31:29.623Z,9.54
2018-12-21T07:32:30.218Z,9.53
2018-12-21T07:33:30.813Z,9.45
2018-12-21T07:34:31.410Z,9.45
2018-12-21T07:35:32.003Z,9.56
2018-12-21T07:36:32.608Z,9.47
2018-12-21T07:37:33.197Z,9.56
2018-12-21T07:38:33.797Z,9.54
2018-12-21T07:39:34.395Z,9.53
2018-12-21T07:40:34.991Z,9.43
2018-12-21T07:41:35.583Z,9.54
2018-12-21T07:42:36.183Z,9.53
2018-12-21T07:43:36.778Z,9.44
2018-12-21T07:44:37.367Z,9.48
2018-12-21T07:45:37.967Z,9.50
2018-12-21T07:46:38.563Z,9.62
2018-12-21T07:47:39.158Z,9.59
2018-12-21T07:48:39.757Z,9.61
2018-12-21T07:49:40.355Z,9.62
2018-12-21T07:50:40.954Z,9.62
2018-12-21T07:51:41.542Z,9.65
2018-12-21T07:52:42.141Z,9.66
2018-12-21T07:53:42.738Z,9.61
2018-12-21T07:54:43.335Z,9.62
2018-12-21T07:55:43.933Z,9.68
2018-12-21T07:56:44.534Z,9.68
2018-12-21T07:57:45.129Z,9.61
2018-12-21T07:58:45.723Z,9.61
2018-12-21T07:59:46.311Z,9.66
2018-12-21T08:00:46.907Z,9.63
2018-12-21T08:01:47.500Z,9.69
2018-12-21T08:02:48.102Z,9.62
2018-12-21T08:03:48.701Z,9.66
2018-12-21T08:04:49.293Z,9.65
2018-12-21T08:05:49.890Z,9.68
2018-12-21T08:06:50.491Z,9.65
2018-12-21T08:07:51.082Z,9.59
2018-12-21T08:08:51.683Z,9.66
2018-12-21T08:09:52.276Z,9.68
2018-12-21T08:10:52.875Z,9.65
2018-12-21T08:11:53.473Z,9.63
2018-12-21T08:12:54.070Z,9.65
2018-12-21T08:13:54.662Z,9.72
2018-12-21T08:14:55.262Z,9.58
2018-12-21T08:15:55.902Z,9.65
2018-12-21T08:16:56.451Z,9.65
2018-12-21T08:17:57.045Z,9.83
2018-12-21T08:18:57.641Z,9.72
2018-12-21T08:19:58.236Z,9.77
2018-12-21T08:20:58.828Z,9.77
2018-12-21T08:21:59.429Z,9.71
2018-12-21T08:23:00.033Z,9.81
2018-12-21T08:24:00.635Z,9.80
2018-12-21T08:25:01.235Z,9.83
2018-12-21T08:26:01.835Z,9.81
2018-12-21T08:27:02.433Z,9.84
2018-12-21T08:28:03.037Z,9.86
2018-12-21T08:29:03.634Z,9.94
2018-12-21T08:30:04.224Z,9.90
2018-12-21T08:31:04.823Z,9.81
2018-12-21T08:32:05.417Z,9.95
2018-12-21T08:33:06.019Z,9.94
2018-12-21T08:34:06.621Z,9.96
2018-12-21T08:35:07.222Z,10.05
2018-12-21T08:36:07.821Z,10.05
2018-12-21T08:37:08.419Z,9.99
2018-12-21T08:38:09.024Z,10.09
2018-12-21T08:39:09.624Z,10.17
2018-12-21T08:40:10.218Z,10.16
2018-12-21T08:41:10.810Z,10.20
2018-12-21T08:42:11.412Z,10.16
2018-12-21T08:43:12.014Z,10.22
2018-12-21T08:44:12.617Z,10.20
2018-12-21T08:45:13.216Z,10.29
2018-12-21T08:46:13.809Z,10.32
2018-12-21T08:47:14.403Z,10.31
2018-12-21T08:48:15.009Z,10.37
2018-12-21T08:49:15.620Z,10.29
2018-12-21T08:50:16.209Z,10.37
2018-12-21T08:51:16.811Z,10.37
2018-12-21T08:52:17.410Z,10.37
2018-12-21T08:53:18.014Z,10.41
2018-12-21T08:54:18.603Z,10.39
2018-12-21T08:55:19.205Z,10.39
2018-12-21T08:56:19.801Z,10.34
2018-12-21T08:57:20.401Z,10.45
2018-12-21T08:58:20.997Z,10.42
2018-12-21T08:59:21.591Z,10.38
2018-12-21T09:00:22.181Z,10.42
2018-12-21T09:01:22.775Z,10.38
2018-12-21T09:02:23.370Z,10.39
2018-12-21T09:03:23.962Z,10.49
2018-12-21T09:04:32.005Z,10.47
2018-12-21T09:05:25.164Z,10.45
2018-12-21T09:06:25.784Z,10.56
2018-12-21T09:07:26.361Z,10.49
2018-12-21T09:08:26.954Z,10.51
2018-12-21T09:09:27.549Z,10.54
2018-12-21T09:10:28.143Z,10.51
2018-12-21T09:11:28.746Z,10.61
2018-12-21T09:12:29.353Z,10.67
2018-12-21T09:13:29.954Z,10.67
2018-12-21T09:14:30.546Z,10.69
2018-12-21T09:15:31.154Z,10.58
2018-12-21T09:16:31.752Z,10.75
2018-12-21T09:17:32.357Z,10.76
2018-12-21T09:18:32.955Z,10.78
2018-12-21T09:19:33.562Z,10.74
2018-12-21T09:20:34.167Z,10.85
2018-12-21T09:21:34.770Z,10.85
2018-12-21T09:22:35.366Z,10.99
2018-12-21T09:23:35.965Z,11.00
2018-12-21T09:24:36.564Z,11.00
2018-12-21T09:25:37.178Z,11.03
2018-12-21T09:26:37.762Z,11.09
2018-12-21T09:27:38.378Z,11.07
2018-12-21T09:28:38.975Z,11.08
2018-12-21T09:29:39.577Z,11.19
2018-12-21T09:30:40.182Z,11.16
2018-12-21T09:31:40.775Z,11.19
2018-12-21T09:32:41.378Z,11.24
2018-12-21T09:33:41.968Z,11.29
2018-12-21T09:34:42.581Z,11.30
2018-12-21T09:35:43.177Z,11.29
2018-12-21T09:36:43.769Z,11.32
2018-12-21T09:37:44.368Z,11.42
2018-12-21T09:38:44.973Z,11.47
2018-12-21T09:39:45.579Z,11.44
2018-12-21T09:40:46.184Z,11.52
2018-12-21T09:41:46.777Z,11.50
2018-12-21T09:42:47.377Z,11.59
2018-12-21T09:43:47.979Z,11.70
2018-12-21T09:44:52.464Z,11.69
2018-12-21T09:45:49.216Z,11.73
2018-12-21T09:46:49.780Z,11.75
2018-12-21T09:47:50.382Z,11.66
2018-12-21T09:48:50.979Z,11.76
2018-12-21T09:49:51.573Z,11.81
2018-12-21T09:50:52.181Z,11.76
2018-12-21T09:51:52.789Z,11.76
2018-12-21T09:52:53.391Z,11.85
2018-12-21T09:53:53.989Z,11.88
2018-12-21T09:54:54.600Z,11.95
2018-12-21T09:55:55.207Z,11.93
2018-12-21T09:56:55.800Z,11.90
2018-12-21T09:57:56.408Z,11.95
2018-12-21T09:58:57.018Z,12.06
2018-12-21T09:59:57.617Z,11.95
2018-12-21T10:00:58.217Z,12.00
2018-12-21T10:01:58.820Z,12.00
2018-12-21T10:02:59.417Z,12.03
2018-12-21T10:04:00.020Z,12.01
2018-12-21T10:05:00.619Z,12.01
2018-12-21T10:06:01.214Z,12.13
2018-12-21T10:07:01.820Z,12.13
2018-12-21T10:08:02.417Z,12.09
2018-12-21T10:09:03.023Z,12.13
2018-12-21T10:10:03.625Z,12.14
2018-12-21T10:11:04.248Z,12.16
2018-12-21T10:12:04.843Z,12.10
2018-12-21T10:13:05.461Z,12.11
2018-12-21T10:14:06.047Z,12.14
2018-12-21T10:15:06.651Z,12.13
2018-12-21T10:16:07.256Z,12.11
2018-12-21T10:17:07.860Z,12.06
2018-12-21T10:18:08.461Z,12.09
2018-12-21T10:19:09.058Z,12.09
2018-12-21T10:20:09.665Z,12.11
2018-12-21T10:21:10.266Z,12.09
2018-12-21T10:22:10.861Z,12.18
2018-12-21T10:23:11.466Z,12.22
2018-12-21T10:24:18.523Z,12.24
2018-12-21T10:25:12.674Z,12.27
2018-12-21T10:26:13.278Z,12.35
2018-12-21T10:27:13.874Z,12.29
2018-12-21T10:28:14.469Z,12.29
2018-12-21T10:29:15.074Z,12.37
2018-12-21T10:30:15.686Z,12.42
2018-12-21T10:31:16.283Z,12.42
2018-12-21T10:32:16.898Z,12.50
2018-12-21T10:33:17.494Z,12.50
2018-12-21T10:34:18.100Z,12.65
2018-12-21T10:35:18.705Z,12.62
2018-12-21T10:36:19.313Z,12.64
2018-12-21T10:37:19.917Z,12.72
2018-12-21T10:38:20.525Z,12.83
2018-12-21T10:39:21.178Z,12.83
2018-12-21T10:40:21.729Z,12.95
2018-12-21T10:41:22.326Z,12.95
2018-12-21T10:42:22.932Z,12.97
2018-12-21T10:43:23.530Z,13.05
2018-12-21T10:44:24.130Z,13.18
2018-12-21T10:45:24.737Z,13.16
2018-12-21T10:46:25.335Z,13.20
2018-12-21T10:47:25.931Z,13.12
2018-12-21T10:48:26.532Z,13.20
2018-12-21T10:49:27.132Z,13.25
2018-12-21T10:50:27.741Z,13.22
2018-12-21T10:51:28.337Z,13.25
2018-12-21T10:52:28.945Z,13.27
2018-12-21T10:53:29.549Z,13.30
2018-12-21T10:54:30.153Z,13.36
2018-12-21T10:55:30.763Z,13.35
2018-12-21T10:56:31.368Z,13.35
2018-12-21T10:57:31.965Z,13.35
2018-12-21T10:58:32.576Z,13.35
2018-12-21T10:59:33.182Z,13.42
2018-12-21T11:00:33.789Z,13.45
2018-12-21T11:01:34.394Z,13.39
2018-12-21T11:02:35.003Z,13.44
2018-12-21T11:03:35.606Z,13.44
2018-12-21T11:04:36.216Z,13.45
2018-12-21T11:05:36.824Z,13.46
2018-12-21T11:06:37.431Z,13.44
2018-12-21T11:07:38.078Z,13.50
2018-12-21T11:08:38.634Z,13.54
2018-12-21T11:09:39.242Z,13.53
2018-12-21T11:10:39.841Z,13.56
2018-12-21T11:11:40.446Z,13.59
2018-12-21T11:12:41.052Z,13.54
2018-12-21T11:13:41.666Z,13.56
2018-12-21T11:14:42.265Z,13.64
2018-12-21T11:15:42.867Z,13.63
2018-12-21T11:16:43.475Z,13.72
2018-12-21T11:17:44.123Z,13.74
2018-12-21T11:18:44.683Z,13.71
2018-12-21T11:19:45.294Z,13.63
2018-12-21T11:20:45.901Z,13.74
2018-12-21T11:21:46.503Z,13.69
2018-12-21T11:22:47.114Z,13.74
2018-12-21T11:23:47.709Z,13.75
2018-12-21T11:24:48.318Z,13.75
2018-12-21T11:25:48.924Z,13.79
2018-12-21T11:26:49.525Z,13.78
2018-12-21T11:27:50.122Z,13.82
2018-12-21T11:28:50.728Z,13.74
2018-12-21T11:29:51.335Z,13.78
2018-12-21T11:30:51.943Z,13.79
2018-12-21T11:31:52.545Z,13.78
2018-12-21T11:32:53.160Z,13.77
2018-12-21T11:33:53.762Z,13.75
2018-12-21T11:34:54.961Z,13.75
2018-12-21T11:35:54.965Z,13.75
2018-12-21T11:36:55.577Z,13.74
2018-12-21T11:37:56.177Z,13.84
2018-12-21T11:38:56.786Z,13.92
2018-12-21T11:39:57.395Z,13.86
2018-12-21T11:40:58.004Z,13.92
2018-12-21T11:41:58.630Z,13.92
2018-12-21T11:42:59.243Z,13.93
2018-12-21T11:43:59.840Z,14.00
2018-12-21T11:45:00.439Z,14.10
2018-12-21T11:46:01.044Z,14.10
2018-12-21T11:47:01.651Z,14.02
2018-12-21T11:48:02.259Z,14.00
2018-12-21T11:49:02.870Z,14.12
2018-12-21T11:50:03.477Z,14.10
2018-12-21T11:51:04.080Z,14.11
2018-12-21T11:52:04.679Z,14.10
2018-12-21T11:53:05.288Z,14.11
2018-12-21T11:54:05.899Z,14.10
2018-12-21T11:55:06.503Z,14.07
2018-12-21T11:56:07.111Z,14.10
2018-12-21T11:57:07.710Z,14.03
2018-12-21T11:58:08.309Z,14.18
2018-12-21T11:59:08.925Z,14.15
2018-12-21T12:00:09.525Z,14.17
2018-12-21T12:01:10.128Z,14.18
2018-12-21T12:02:19.318Z,14.14
2018-12-21T12:03:11.337Z,14.18
2018-12-21T12:04:11.935Z,14.29
2018-12-21T12:05:12.534Z,14.19
2018-12-21T12:06:13.146Z,14.32
2018-12-21T12:07:13.750Z,14.30
2018-12-21T12:08:14.362Z,14.35
2018-12-21T12:09:14.958Z,14.39
2018-12-21T12:10:15.563Z,14.39
2018-12-21T12:11:16.165Z,14.50
2018-12-21T12:12:16.762Z,14.44
2018-12-21T12:13:17.371Z,14.44
2018-12-21T12:14:17.971Z,14.44
2018-12-21T12:15:18.571Z,14.45
2018-12-21T12:16:19.186Z,14.54
2018-12-21T12:17:19.794Z,14.54
2018-12-21T12:18:20.589Z,14.57
2018-12-21T12:19:21.192Z,14.54
2018-12-21T12:20:21.800Z,14.52
2018-12-21T12:21:22.438Z,14.60
2018-12-21T12:22:23.021Z,14.62
2018-12-21T12:23:23.628Z,14.52
2018-12-21T12:24:24.231Z,14.66
2018-12-21T12:25:24.825Z,14.62
2018-12-21T12:26:25.437Z,14.60
2018-12-21T12:27:26.044Z,14.72
2018-12-21T12:28:26.651Z,14.75
2018-12-21T12:29:27.253Z,14.72
2018-12-21T12:30:27.854Z,14.81
2018-12-21T12:31:28.459Z,14.85
2018-12-21T12:32:29.065Z,14.73
2018-12-21T12:33:29.708Z,14.84
2018-12-21T12:34:30.310Z,14.88
2018-12-21T12:35:30.913Z,14.89
2018-12-21T12:36:31.515Z,14.96
2018-12-21T12:37:32.114Z,14.82
2018-12-21T12:38:32.724Z,14.81
2018-12-21T12:39:33.331Z,14.72
2018-12-21T12:40:33.935Z,14.68
2018-12-21T12:41:34.541Z,14.63
2018-12-21T12:42:35.137Z,14.63
2018-12-21T12:43:35.736Z,14.65
2018-12-21T12:44:36.333Z,14.47
2018-12-21T12:45:36.929Z,14.44
2018-12-21T12:46:37.535Z,14.45
2018-12-21T12:47:38.132Z,14.48
2018-12-21T12:48:38.734Z,14.48
2018-12-21T12:49:39.338Z,14.32
2018-12-21T12:50:39.943Z,14.35
2018-12-21T12:51:40.552Z,14.36
2018-12-21T12:52:41.157Z,14.32
2018-12-21T12:53:41.764Z,14.37
2018-12-21T12:54:42.369Z,14.27
2018-12-21T12:55:42.973Z,14.32
2018-12-21T12:56:43.573Z,14.47
2018-12-21T12:57:44.182Z,14.40
2018-12-21T12:58:44.781Z,14.45
2018-12-21T12:59:45.393Z,14.44
2018-12-21T13:00:45.994Z,14.52
2018-12-21T13:01:46.594Z,14.60
2018-12-21T13:02:47.201Z,14.57
2018-12-21T13:03:47.814Z,14.62
2018-12-21T13:04:48.418Z,14.48
2018-12-21T13:05:49.017Z,14.60
2018-12-21T13:06:49.626Z,14.62
2018-12-21T13:07:50.230Z,14.66
2018-12-21T13:08:50.827Z,14.62
2018-12-21T13:09:51.436Z,14.68
2018-12-21T13:10:52.042Z,14.63
2018-12-21T13:11:52.648Z,14.63
2018-12-21T13:12:53.261Z,14.70
2018-12-21T13:13:53.868Z,14.58
2018-12-21T13:14:54.472Z,14.63
2018-12-21T13:15:55.071Z,14.57
2018-12-21T13:16:55.677Z,14.73
2018-12-21T13:17:56.286Z,14.68
2018-12-21T13:18:56.898Z,14.68